createdAt,value
2023-01-27T00:02:16.748Z,23.00
2023-01-27T00:07:18.442Z,23.98
2023-01-27T00:12:43.529Z,21.13
2023-01-27T00:17:45.269Z,22.80
2023-01-27T00:23:05.350Z,22.45
2023-01-27T00:28:08.550Z,21.15
2023-01-27T00:33:25.714Z,19.88
2023-01-27T00:38:32.602Z,20.23
2023-01-27T00:43:34.319Z,22.55
2023-01-27T00:48:36.525Z,20.42
2023-01-27T00:53:38.257Z,20.02
2023-01-27T00:58:40.212Z,18.35
2023-01-27T01:03:43.366Z,17.70
2023-01-27T01:08:45.641Z,16.00
2023-01-27T01:13:47.918Z,19.10
2023-01-27T01:18:50.083Z,12.52
2023-01-27T01:23:51.849Z,15.13
2023-01-27T01:28:53.746Z,12.85
2023-01-27T01:33:55.454Z,14.05
2023-01-27T01:38:58.364Z,10.30
2023-01-27T01:44:24.990Z,10.63
2023-01-27T01:49:32.578Z,11.95
2023-01-27T01:54:39.704Z,10.43
2023-01-27T01:59:46.667Z,9.55
2023-01-27T02:04:58.782Z,9.88
2023-01-27T02:10:02.734Z,8.98
2023-01-27T02:15:05.993Z,10.20
2023-01-27T02:20:31.709Z,8.02
2023-01-27T02:25:36.537Z,9.63
2023-01-27T02:30:38.395Z,9.98
2023-01-27T02:36:06.062Z,10.65
2023-01-27T02:41:34.203Z,11.00
2023-01-27T02:46:36.915Z,10.15
2023-01-27T02:51:39.436Z,9.57
2023-01-27T02:56:41.236Z,11.40
2023-01-27T03:01:43.002Z,8.93
2023-01-27T03:06:45.962Z,9.40
2023-01-27T03:12:06.387Z,10.20
2023-01-27T03:17:26.761Z,10.20
2023-01-27T03:22:33.072Z,13.13
2023-01-27T03:27:35.424Z,9.15
2023-01-27T03:32:37.284Z,7.78
2023-01-27T03:37:57.668Z,11.27
2023-01-27T03:43:18.412Z,11.18
2023-01-27T03:48:21.110Z,11.15
2023-01-27T03:53:22.837Z,14.63
2023-01-27T03:58:27.715Z,13.55
2023-01-27T04:03:53.512Z,14.63
2023-01-27T04:08:55.472Z,12.73
2023-01-27T04:14:01.038Z,15.93
2023-01-27T04:19:05.001Z,16.98
2023-01-27T04:24:17.468Z,15.10
2023-01-27T04:29:19.400Z,13.05
2023-01-27T04:34:21.601Z,18.35
2023-01-27T04:39:23.784Z,15.13
2023-01-27T04:44:25.812Z,15.73
2023-01-27T04:49:27.693Z,12.70
2023-01-27T04:54:29.604Z,15.02
2023-01-27T04:59:31.454Z,14.13
2023-01-27T05:04:33.376Z,15.32
2023-01-27T05:09:35.142Z,16.77
2023-01-27T05:14:36.910Z,14.95
2023-01-27T05:19:38.711Z,15.60
2023-01-27T05:24:41.206Z,13.73
2023-01-27T05:29:43.053Z,15.32
2023-01-27T05:34:45.047Z,12.85
2023-01-27T05:39:46.819Z,12.10
2023-01-27T05:44:50.646Z,11.75
2023-01-27T05:49:52.623Z,10.43
2023-01-27T05:54:54.364Z,12.05
2023-01-27T05:59:57.370Z,11.30
2023-01-27T06:04:59.357Z,10.68
2023-01-27T06:10:01.142Z,11.20
2023-01-27T06:15:04.089Z,9.55
2023-01-27T06:20:06.746Z,10.82
2023-01-27T06:25:08.841Z,13.10
2023-01-27T06:30:11.149Z,9.75
2023-01-27T06:35:13.351Z,13.20
2023-01-27T06:40:15.748Z,11.68
2023-01-27T06:45:17.991Z,11.48
2023-01-27T06:50:19.997Z,9.45
2023-01-27T06:55:23.899Z,10.32
2023-01-27T07:00:27.964Z,14.05
2023-01-27T07:05:30.283Z,11.63
2023-01-27T07:10:32.098Z,11.55
2023-01-27T07:15:34.406Z,11.73
2023-01-27T07:20:36.165Z,11.75
2023-01-27T07:25:39.179Z,16.58
2023-01-27T07:30:41.180Z,15.85
2023-01-27T07:35:43.147Z,13.20
2023-01-27T07:40:44.926Z,11.90
2023-01-27T07:45:48.996Z,13.50
2023-01-27T07:50:50.983Z,13.13
2023-01-27T07:55:53.021Z,15.57
2023-01-27T08:00:55.382Z,14.90
2023-01-27T08:05:57.153Z,14.82
2023-01-27T08:11:08.660Z,13.10
2023-01-27T08:16:13.764Z,38.05
2023-01-27T08:21:15.589Z,14.27
2023-01-27T08:26:17.427Z,15.65
2023-01-27T08:31:19.424Z,14.90
2023-01-27T08:36:24.538Z,14.68
2023-01-27T08:41:27.275Z,10.20
2023-01-27T08:46:29.055Z,10.75
2023-01-27T08:51:30.778Z,11.07
2023-01-27T08:56:32.592Z,10.82
2023-01-27T09:01:34.610Z,12.00
2023-01-27T09:06:36.484Z,10.10
2023-01-27T09:11:41.311Z,11.27
2023-01-27T09:16:43.096Z,11.82
2023-01-27T09:21:44.923Z,12.00
2023-01-27T09:26:47.140Z,10.02
2023-01-27T09:31:49.069Z,11.70
2023-01-27T09:36:59.093Z,12.80
2023-01-27T09:42:31.763Z,9.63
2023-01-27T09:47:51.037Z,11.88
2023-01-27T09:53:21.915Z,12.20
2023-01-27T09:58:47.132Z,9.75
2023-01-27T10:04:33.023Z,10.60
2023-01-27T10:09:51.590Z,11.80
2023-01-27T10:15:10.605Z,12.52
2023-01-27T10:20:26.897Z,10.50
2023-01-27T10:26:08.511Z,9.55
2023-01-27T10:31:26.805Z,11.18
2023-01-27T10:36:54.467Z,12.07
2023-01-27T10:42:25.051Z,11.52
2023-01-27T10:47:39.741Z,13.10
2023-01-27T10:52:59.008Z,13.32
2023-01-27T10:58:11.753Z,13.70
2023-01-27T11:03:25.652Z,12.18
2023-01-27T11:08:32.783Z,13.55
2023-01-27T11:13:35.689Z,12.23
2023-01-27T11:18:38.419Z,13.95
2023-01-27T11:23:43.403Z,11.27
2023-01-27T11:29:19.917Z,10.88
2023-01-27T11:34:49.999Z,10.95
2023-01-27T11:39:51.998Z,10.73
2023-01-27T11:44:56.398Z,10.60
2023-01-27T11:50:00.766Z,9.00
2023-01-27T11:55:20.881Z,9.90
2023-01-27T12:00:56.109Z,8.80
2023-01-27T12:06:04.503Z,8.05
2023-01-27T12:11:30.599Z,7.45
2023-01-27T12:16:48.214Z,9.13
2023-01-27T12:21:54.502Z,8.15
2023-01-27T12:26:57.619Z,6.57
2023-01-27T12:32:01.226Z,7.80
2023-01-27T12:37:07.638Z,6.30
2023-01-27T12:42:51.871Z,5.78
2023-01-27T12:48:02.726Z,4.35
2023-01-27T12:53:06.283Z,3.97
2023-01-27T12:58:26.578Z,7.00
2023-01-27T13:03:29.646Z,3.60
2023-01-27T13:08:34.566Z,3.65
2023-01-27T13:13:36.717Z,3.95
2023-01-27T13:18:39.676Z,7.72
2023-01-27T13:23:42.145Z,4.43
2023-01-27T13:28:55.507Z,3.03
2023-01-27T13:34:11.377Z,3.10
2023-01-27T13:39:43.598Z,3.60
2023-01-27T13:44:55.085Z,4.07
2023-01-27T13:50:16.482Z,4.40
2023-01-27T13:55:25.973Z,3.80
2023-01-27T14:00:46.265Z,2.83
2023-01-27T14:06:16.012Z,4.35
2023-01-27T14:11:29.409Z,3.50
2023-01-27T14:17:04.165Z,4.53
2023-01-27T14:22:34.116Z,4.65
2023-01-27T14:27:45.273Z,4.63
2023-01-27T14:33:01.971Z,4.18
2023-01-27T14:38:28.042Z,4.32
2023-01-27T14:43:40.311Z,4.00
2023-01-27T14:48:56.293Z,3.45
2023-01-27T14:54:22.654Z,4.53
2023-01-27T14:59:47.339Z,3.63
2023-01-27T15:05:22.692Z,4.38
2023-01-27T15:10:32.516Z,6.10
2023-01-27T15:15:56.171Z,4.65
2023-01-27T15:21:37.740Z,4.85
2023-01-27T15:26:42.172Z,3.78
2023-01-27T15:32:04.080Z,4.13
2023-01-27T15:37:21.105Z,6.28
2023-01-27T15:42:26.712Z,4.80
2023-01-27T15:47:35.396Z,6.00
2023-01-27T15:52:46.054Z,9.02
2023-01-27T15:57:52.342Z,6.00
2023-01-27T16:02:58.841Z,5.85
2023-01-27T16:08:03.073Z,5.82
2023-01-27T16:13:24.254Z,5.72
2023-01-27T16:18:40.773Z,4.43
2023-01-27T16:23:55.244Z,5.47
2023-01-27T16:29:19.331Z,6.63
2023-01-27T16:34:41.046Z,3.90
2023-01-27T16:40:07.051Z,5.68
2023-01-27T16:45:30.658Z,4.88
2023-01-27T16:50:44.523Z,5.93
2023-01-27T16:56:15.514Z,6.90
2023-01-27T17:01:40.920Z,5.85
2023-01-27T17:06:43.182Z,6.50
2023-01-27T17:11:45.147Z,5.55
2023-01-27T17:16:49.717Z,4.65
2023-01-27T17:22:17.664Z,4.28
2023-01-27T17:27:36.662Z,4.03
2023-01-27T17:32:42.005Z,5.68
2023-01-27T17:37:43.876Z,6.25
2023-01-27T17:42:46.205Z,5.40
2023-01-27T17:47:48.481Z,5.18
2023-01-27T17:52:53.154Z,5.70
2023-01-27T17:58:03.684Z,5.93
2023-01-27T18:03:34.573Z,5.55
2023-01-27T18:08:36.815Z,4.93
2023-01-27T18:13:41.231Z,5.93
2023-01-27T18:18:43.815Z,4.88
2023-01-27T18:23:48.369Z,6.40
2023-01-27T18:28:56.582Z,5.10
2023-01-27T18:34:06.007Z,6.15
2023-01-27T18:39:26.763Z,5.25
2023-01-27T18:44:34.537Z,6.95
2023-01-27T18:49:38.875Z,6.45
2023-01-27T18:54:41.663Z,8.82
2023-01-27T18:59:43.366Z,9.57
2023-01-27T19:04:45.901Z,9.93
2023-01-27T19:09:49.033Z,9.40
2023-01-27T19:14:50.879Z,9.45
2023-01-27T19:19:52.916Z,9.23
2023-01-27T19:24:54.716Z,11.25
2023-01-27T19:29:56.475Z,10.02
2023-01-27T19:34:58.204Z,11.10
2023-01-27T19:40:00.994Z,11.05
2023-01-27T19:45:02.791Z,12.43
2023-01-27T19:50:05.723Z,9.55
2023-01-27T19:55:08.131Z,12.18
2023-01-27T20:00:22.707Z,13.55
2023-01-27T20:05:26.804Z,11.57
2023-01-27T20:10:33.351Z,11.73
2023-01-27T20:15:37.785Z,10.48
2023-01-27T20:20:39.690Z,10.23
2023-01-27T20:25:41.991Z,10.50
2023-01-27T20:30:43.983Z,12.13
2023-01-27T20:35:45.841Z,9.15
2023-01-27T20:40:47.801Z,9.27
2023-01-27T20:45:50.201Z,10.80
2023-01-27T20:51:02.865Z,15.38
2023-01-27T20:56:04.920Z,12.35
2023-01-27T21:01:11.968Z,13.43
2023-01-27T21:06:22.624Z,11.73
2023-01-27T21:11:24.855Z,11.40
2023-01-27T21:16:27.957Z,9.57
2023-01-27T21:21:31.500Z,10.18
2023-01-27T21:26:33.529Z,10.85
2023-01-27T21:31:35.265Z,8.10
2023-01-27T21:36:37.975Z,9.15
2023-01-27T21:41:55.064Z,9.77
2023-01-27T21:46:58.110Z,8.43
2023-01-27T21:51:59.998Z,9.55
2023-01-27T21:57:01.787Z,10.77
2023-01-27T22:02:03.639Z,8.85
2023-01-27T22:07:05.829Z,8.07
2023-01-27T22:12:09.858Z,8.35
2023-01-27T22:17:11.780Z,10.98
2023-01-27T22:22:14.002Z,7.53
2023-01-27T22:27:15.717Z,8.57
2023-01-27T22:32:17.557Z,8.00
2023-01-27T22:37:19.338Z,6.95
2023-01-27T22:42:21.172Z,7.53
2023-01-27T22:47:22.919Z,6.22
2023-01-27T22:52:24.640Z,8.23
2023-01-27T22:57:30.271Z,6.78
2023-01-27T23:02:32.319Z,6.18
2023-01-27T23:07:34.136Z,8.27
2023-01-27T23:12:35.888Z,5.38
2023-01-27T23:17:37.713Z,5.40
2023-01-27T23:22:39.839Z,4.97
2023-01-27T23:27:41.958Z,5.85
2023-01-27T23:32:43.723Z,5.70
2023-01-27T23:37:46.927Z,6.80
2023-01-27T23:42:48.699Z,5.93
2023-01-27T23:47:50.477Z,4.72
2023-01-27T23:52:52.173Z,4.82
2023-01-27T23:57:53.890Z,4.60
